Bezoek ook deze websites:

Template documentation
and downloads

And another site



METAR rapporten vliegvelden


Warning: curl_setopt(): CURLOPT_FOLLOWLOCATION cannot be activated when an open_basedir is set in /home/w16454we/public_html/weather28/metar/wsMetarTxt.php on line 747

Warning: curl_setopt(): CURLOPT_FOLLOWLOCATION cannot be activated when an open_basedir is set in /home/w16454we/public_html/weather28/metar/wsMetarTxt.php on line 747

Warning: curl_setopt(): CURLOPT_FOLLOWLOCATION cannot be activated when an open_basedir is set in /home/w16454we/public_html/weather28/metar/wsMetarTxt.php on line 747

Warning: curl_setopt(): CURLOPT_FOLLOWLOCATION cannot be activated when an open_basedir is set in /home/w16454we/public_html/weather28/metar/wsMetarTxt.php on line 747

Warning: curl_setopt(): CURLOPT_FOLLOWLOCATION cannot be activated when an open_basedir is set in /home/w16454we/public_html/weather28/metar/wsMetarTxt.php on line 747

Warning: curl_setopt(): CURLOPT_FOLLOWLOCATION cannot be activated when an open_basedir is set in /home/w16454we/public_html/weather28/metar/wsMetarTxt.php on line 747
   
EHVK - Volkel Rnlafb, Netherlands
Afstand tot: ZW 18 km
Gewijzigd: 05-04-2020 02:25
Helder  
Helder  
   Wind: Oosten 7.4 km/h
Wind: Oosten 7.4 km/h
Temperatuur: 6°C
Voelt als: 4°C
Dauwpunt: -1°C
Vochtigheid: 61%
Barometer: 1023 hPa
Bewolking: Helder
Zicht: meer dan 10 km
Bewolking: Helder
EHVK 050025Z AUTO 09004KT 9999 NCD 06/M01 Q1023 BLU
EDLV - Niederrhein, Germany
Afstand tot: ZO 25 km
Gewijzigd: 03-04-2020 15:20
Verouderd
Helder  
Helder  
   Wind: WNW 20.4 km/h
Wind: WNW 20.4 km/h
Temperatuur: 10°C
Voelt als: 7°C
Dauwpunt: 2°C
Vochtigheid: 58%
Barometer: 1016 hPa
Zicht: meer dan 10 km
Bewolking: Helder
EDLV 031320Z 30011KT 280V340 CAVOK 10/02 Q1016
EHDL - Deelen Rnlafb, Netherlands
Afstand tot: N 35 km
Gewijzigd: 05-04-2020 02:25
Helder  
Helder  
   Wind: OZO 9.3 km/h
Wind: OZO 9.3 km/h
Temperatuur: 5°C
Voelt als: 3°C
Dauwpunt: -1°C
Vochtigheid: 66%
Barometer: 1023 hPa
Bewolking: Helder
Zicht: meer dan 10 km
Bewolking: Helder
EHDL 050025Z AUTO 11005KT 060V200 9999 NCD 05/M01 Q1023 BLU
EHEH - Eindhoven Rnlafb, Netherlands
Afstand tot: ZW 48 km
Gewijzigd: 05-04-2020 02:25
Helder  
Helder  
   Wind: OZO 7.4 km/h
Wind: OZO 7.4 km/h
Temperatuur: 8°C
Voelt als: 7°C
Dauwpunt: -1°C
Vochtigheid: 53%
Barometer: 1023 hPa
Bewolking: Helder
Zicht: meer dan 10 km
Bewolking: Helder
EHEH 050025Z AUTO 12004KT 9999 NCD 08/M01 Q1023 BLU
EHGR - Gilze-Rijen Rnla, Netherlands
Afstand tot: WZW 70 km
Gewijzigd: 05-04-2020 02:25
Helder  
Helder  
   Wind: OZO 13 km/h
Wind: OZO 13 km/h
Temperatuur: 7°C
Voelt als: 4°C
Dauwpunt: -1°C
Vochtigheid: 57%
Barometer: 1022 hPa
Bewolking: Helder
Zicht: meer dan 10 km
Bewolking: Helder
EHGR 050025Z AUTO 12007KT 9999 NCD 07/M01 Q1022 BLU
EBBL - Kleine-Brogel(Ba, Belgium
Afstand tot: ZZW 71 km
Gewijzigd: 05-04-2020 02:25
Helder  
Helder  
   Wind: varieert 3.7 km/h
Wind: varieert 3.7 km/h
Temperatuur: 5°C
Dauwpunt: -1°C
Vochtigheid: 66%
Barometer: 1023 hPa
Bewolking: Helder
Zicht: meer dan 10 km
Bewolking: Helder
EBBL 050025Z AUTO VRB02KT 9999 NCD 05/M01 Q1023 BLU

Script ontwikkeld door  Saratoga-weather.org Aangepast voor de template door  Weerstation Leuven

U vindt ons ook hier:

Het Weer Aktueel

UK Metoffice

WeatherCloud

Weather Underground

AWEKAS

HAMweather, WeatherForYou, PWS Weather

Apparatuur in gebruik:

Weerstation
Davis Vantage Vue

Weerprogramma
Meteobridge

Davis Vantage Vue

Meteobridge